sensor_id;sensor_type;location;lat;lon;timestamp;temperature;humidity
19538;DHT22;9914;51.008;4.300;2023-03-31T00:01:28;13.10;99.90
19538;DHT22;9914;51.008;4.300;2023-03-31T00:03:55;13.00;99.90
19538;DHT22;9914;51.008;4.300;2023-03-31T00:06:35;13.10;99.90
19538;DHT22;9914;51.008;4.300;2023-03-31T00:09:08;13.10;99.90
19538;DHT22;9914;51.008;4.300;2023-03-31T00:11:34;13.10;99.90
19538;DHT22;9914;51.008;4.300;2023-03-31T00:14:00;13.10;99.90
19538;DHT22;9914;51.008;4.300;2023-03-31T00:16:26;13.10;99.90
19538;DHT22;9914;51.008;4.300;2023-03-31T00:18:51;13.10;99.90
19538;DHT22;9914;51.008;4.300;2023-03-31T00:21:19;13.10;99.90
19538;DHT22;9914;51.008;4.300;2023-03-31T00:24:05;13.10;99.90
19538;DHT22;9914;51.008;4.300;2023-03-31T00:26:32;13.00;99.90
19538;DHT22;9914;51.008;4.300;2023-03-31T00:28:59;13.10;99.90
19538;DHT22;9914;51.008;4.300;2023-03-31T00:31:25;13.00;99.90
19538;DHT22;9914;51.008;4.300;2023-03-31T00:33:52;13.00;99.90
19538;DHT22;9914;51.008;4.300;2023-03-31T00:36:18;13.00;99.90
19538;DHT22;9914;51.008;4.300;2023-03-31T00:38:52;13.00;99.90
19538;DHT22;9914;51.008;4.300;2023-03-31T00:41:18;13.00;99.90
19538;DHT22;9914;51.008;4.300;2023-03-31T00:44:20;12.90;99.90
19538;DHT22;9914;51.008;4.300;2023-03-31T00:49:35;12.70;99.90
19538;DHT22;9914;51.008;4.300;2023-03-31T00:52:22;12.70;99.90
19538;DHT22;9914;51.008;4.300;2023-03-31T00:54:54;12.60;99.90
19538;DHT22;9914;51.008;4.300;2023-03-31T00:57:22;12.50;99.90
19538;DHT22;9914;51.008;4.300;2023-03-31T00:59:57;12.40;99.90
19538;DHT22;9914;51.008;4.300;2023-03-31T01:02:23;12.40;99.90
19538;DHT22;9914;51.008;4.300;2023-03-31T01:04:55;12.40;99.90
19538;DHT22;9914;51.008;4.300;2023-03-31T01:07:39;12.40;99.90
19538;DHT22;9914;51.008;4.300;2023-03-31T01:10:07;12.40;99.90
19538;DHT22;9914;51.008;4.300;2023-03-31T01:12:37;12.40;99.90
19538;DHT22;9914;51.008;4.300;2023-03-31T01:15:03;12.40;99.90
19538;DHT22;9914;51.008;4.300;2023-03-31T01:17:29;12.40;99.90
19538;DHT22;9914;51.008;4.300;2023-03-31T01:20:34;12.50;99.90
19538;DHT22;9914;51.008;4.300;2023-03-31T01:31:27;12.70;99.90
19538;DHT22;9914;51.008;4.300;2023-03-31T01:42:34;12.90;99.90
19538;DHT22;9914;51.008;4.300;2023-03-31T01:45:18;13.00;99.90
19538;DHT22;9914;51.008;4.300;2023-03-31T01:47:53;13.00;99.90
19538;DHT22;9914;51.008;4.300;2023-03-31T01:50:54;12.90;99.90
19538;DHT22;9914;51.008;4.300;2023-03-31T01:56:21;12.90;99.90
19538;DHT22;9914;51.008;4.300;2023-03-31T01:58:57;13.00;99.90
19538;DHT22;9914;51.008;4.300;2023-03-31T02:01:42;13.00;99.90
19538;DHT22;9914;51.008;4.300;2023-03-31T02:04:31;13.00;99.90
19538;DHT22;9914;51.008;4.300;2023-03-31T02:07:03;13.10;99.90
19538;DHT22;9914;51.008;4.300;2023-03-31T02:09:35;13.10;99.90
19538;DHT22;9914;51.008;4.300;2023-03-31T02:12:05;13.10;99.90
19538;DHT22;9914;51.008;4.300;2023-03-31T02:14:33;13.10;99.90
19538;DHT22;9914;51.008;4.300;2023-03-31T02:17:01;13.10;99.90
19538;DHT22;9914;51.008;4.300;2023-03-31T02:19:34;13.10;99.90
19538;DHT22;9914;51.008;4.300;2023-03-31T02:22:05;13.00;99.90
19538;DHT22;9914;51.008;4.300;2023-03-31T02:24:33;13.00;99.90
19538;DHT22;9914;51.008;4.300;2023-03-31T02:29:45;12.80;99.90
19538;DHT22;9914;51.008;4.300;2023-03-31T02:32:25;12.70;99.90
19538;DHT22;9914;51.008;4.300;2023-03-31T02:34:54;12.70;99.90
19538;DHT22;9914;51.008;4.300;2023-03-31T02:37:20;12.60;99.90
19538;DHT22;9914;51.008;4.300;2023-03-31T02:39:48;12.40;99.90
19538;DHT22;9914;51.008;4.300;2023-03-31T02:42:15;12.40;99.90
19538;DHT22;9914;51.008;4.300;2023-03-31T02:44:41;12.30;99.90
19538;DHT22;9914;51.008;4.300;2023-03-31T02:47:09;12.30;99.90
19538;DHT22;9914;51.008;4.300;2023-03-31T02:49:38;12.20;99.90
19538;DHT22;9914;51.008;4.300;2023-03-31T02:57:47;12.20;99.90
19538;DHT22;9914;51.008;4.300;2023-03-31T03:03:30;12.30;99.90
19538;DHT22;9914;51.008;4.300;2023-03-31T03:09:06;12.40;99.90
19538;DHT22;9914;51.008;4.300;2023-03-31T03:12:16;12.40;99.90
19538;DHT22;9914;51.008;4.300;2023-03-31T03:14:59;12.60;99.90
19538;DHT22;9914;51.008;4.300;2023-03-31T03:17:36;12.60;99.90
19538;DHT22;9914;51.008;4.300;2023-03-31T03:20:04;12.60;99.90
19538;DHT22;9914;51.008;4.300;2023-03-31T03:22:34;12.50;99.90
19538;DHT22;9914;51.008;4.300;2023-03-31T03:25:00;12.60;99.90
19538;DHT22;9914;51.008;4.300;2023-03-31T03:27:26;12.70;99.90
19538;DHT22;9914;51.008;4.300;2023-03-31T03:29:52;12.70;99.90
19538;DHT22;9914;51.008;4.300;2023-03-31T03:32:18;12.60;99.90
19538;DHT22;9914;51.008;4.300;2023-03-31T03:34:44;12.80;99.90
19538;DHT22;9914;51.008;4.300;2023-03-31T03:37:09;12.80;99.90
19538;DHT22;9914;51.008;4.300;2023-03-31T03:39:36;12.80;99.90
19538;DHT22;9914;51.008;4.300;2023-03-31T03:42:02;12.60;99.90
19538;DHT22;9914;51.008;4.300;2023-03-31T03:44:27;12.40;99.90
19538;DHT22;9914;51.008;4.300;2023-03-31T03:46:53;12.20;99.90
19538;DHT22;9914;51.008;4.300;2023-03-31T03:49:19;12.30;99.90
19538;DHT22;9914;51.008;4.300;2023-03-31T03:51:45;12.30;99.90
19538;DHT22;9914;51.008;4.300;2023-03-31T03:54:11;12.30;99.90
19538;DHT22;9914;51.008;4.300;2023-03-31T03:56:36;12.20;99.90
19538;DHT22;9914;51.008;4.300;2023-03-31T03:59:02;12.30;99.90
19538;DHT22;9914;51.008;4.300;2023-03-31T04:01:28;12.30;99.90
19538;DHT22;9914;51.008;4.300;2023-03-31T04:03:54;12.30;99.90
19538;DHT22;9914;51.008;4.300;2023-03-31T04:06:19;12.20;99.90
19538;DHT22;9914;51.008;4.300;2023-03-31T04:08:45;12.40;99.90
19538;DHT22;9914;51.008;4.300;2023-03-31T04:11:16;12.50;99.90
19538;DHT22;9914;51.008;4.300;2023-03-31T04:13:43;12.10;99.90
19538;DHT22;9914;51.008;4.300;2023-03-31T04:16:09;12.00;99.90
19538;DHT22;9914;51.008;4.300;2023-03-31T04:18:35;12.20;99.90
19538;DHT22;9914;51.008;4.300;2023-03-31T04:21:02;12.40;99.90
19538;DHT22;9914;51.008;4.300;2023-03-31T04:23:35;12.40;99.90
19538;DHT22;9914;51.008;4.300;2023-03-31T04:26:10;12.50;99.90
19538;DHT22;9914;51.008;4.300;2023-03-31T04:28:36;12.50;99.90
19538;DHT22;9914;51.008;4.300;2023-03-31T04:31:03;12.50;99.90
19538;DHT22;9914;51.008;4.300;2023-03-31T04:33:31;12.40;99.90
19538;DHT22;9914;51.008;4.300;2023-03-31T04:36:04;12.30;99.90
19538;DHT22;9914;51.008;4.300;2023-03-31T04:38:32;12.20;99.90
19538;DHT22;9914;51.008;4.300;2023-03-31T04:41:00;12.10;99.90
19538;DHT22;9914;51.008;4.300;2023-03-31T04:43:26;12.10;99.90
19538;DHT22;9914;51.008;4.300;2023-03-31T04:45:51;12.00;99.90
19538;DHT22;9914;51.008;4.300;2023-03-31T04:48:17;12.00;99.90
19538;DHT22;9914;51.008;4.300;2023-03-31T04:50:43;12.00;99.90
19538;DHT22;9914;51.008;4.300;2023-03-31T04:53:10;11.90;99.90
19538;DHT22;9914;51.008;4.300;2023-03-31T04:55:36;11.90;99.90
19538;DHT22;9914;51.008;4.300;2023-03-31T04:58:01;11.90;99.90
19538;DHT22;9914;51.008;4.300;2023-03-31T05:00:27;11.90;99.90
19538;DHT22;9914;51.008;4.300;2023-03-31T05:02:53;11.90;99.90
19538;DHT22;9914;51.008;4.300;2023-03-31T05:05:19;11.90;99.90
19538;DHT22;9914;51.008;4.300;2023-03-31T05:07:44;11.90;99.90
19538;DHT22;9914;51.008;4.300;2023-03-31T05:10:12;11.90;99.90
19538;DHT22;9914;51.008;4.300;2023-03-31T05:12:38;11.90;99.90
19538;DHT22;9914;51.008;4.300;2023-03-31T05:15:05;11.90;99.90
19538;DHT22;9914;51.008;4.300;2023-03-31T05:17:31;11.80;99.90
19538;DHT22;9914;51.008;4.300;2023-03-31T05:19:58;11.80;99.90
19538;DHT22;9914;51.008;4.300;2023-03-31T05:22:24;11.70;99.90
19538;DHT22;9914;51.008;4.300;2023-03-31T05:24:50;11.80;99.90
19538;DHT22;9914;51.008;4.300;2023-03-31T05:27:15;11.80;99.90
19538;DHT22;9914;51.008;4.300;2023-03-31T05:29:41;11.80;99.90
19538;DHT22;9914;51.008;4.300;2023-03-31T05:32:08;11.80;99.90
19538;DHT22;9914;51.008;4.300;2023-03-31T05:34:33;11.80;99.90
19538;DHT22;9914;51.008;4.300;2023-03-31T05:36:59;11.90;99.90
19538;DHT22;9914;51.008;4.300;2023-03-31T05:39:25;11.80;99.90
19538;DHT22;9914;51.008;4.300;2023-03-31T05:41:51;11.80;99.90
19538;DHT22;9914;51.008;4.300;2023-03-31T05:44:16;11.90;99.90
19538;DHT22;9914;51.008;4.300;2023-03-31T05:46:44;11.80;99.90
19538;DHT22;9914;51.008;4.300;2023-03-31T05:49:10;11.80;99.90
19538;DHT22;9914;51.008;4.300;2023-03-31T05:51:36;11.90;99.90
19538;DHT22;9914;51.008;4.300;2023-03-31T05:54:01;12.00;99.90
19538;DHT22;9914;51.008;4.300;2023-03-31T05:56:27;12.00;99.90
19538;DHT22;9914;51.008;4.300;2023-03-31T05:58:53;12.10;99.90
19538;DHT22;9914;51.008;4.300;2023-03-31T06:01:18;12.10;99.90
19538;DHT22;9914;51.008;4.300;2023-03-31T06:03:47;12.10;99.90
19538;DHT22;9914;51.008;4.300;2023-03-31T06:06:13;12.20;99.90
19538;DHT22;9914;51.008;4.300;2023-03-31T06:08:41;12.20;99.90
19538;DHT22;9914;51.008;4.300;2023-03-31T06:11:12;12.20;99.90
19538;DHT22;9914;51.008;4.300;2023-03-31T06:13:39;12.30;99.90
19538;DHT22;9914;51.008;4.300;2023-03-31T06:16:05;12.30;99.90
19538;DHT22;9914;51.008;4.300;2023-03-31T06:18:33;12.30;99.90
19538;DHT22;9914;51.008;4.300;2023-03-31T06:20:59;12.30;99.90
19538;DHT22;9914;51.008;4.300;2023-03-31T06:23:25;12.40;99.90
19538;DHT22;9914;51.008;4.300;2023-03-31T06:25:51;12.30;99.90
19538;DHT22;9914;51.008;4.300;2023-03-31T06:28:18;12.40;99.90
19538;DHT22;9914;51.008;4.300;2023-03-31T06:30:44;12.50;99.90
19538;DHT22;9914;51.008;4.300;2023-03-31T06:33:09;12.50;99.90
19538;DHT22;9914;51.008;4.300;2023-03-31T06:35:39;12.50;99.90
19538;DHT22;9914;51.008;4.300;2023-03-31T06:38:05;12.60;99.90
19538;DHT22;9914;51.008;4.300;2023-03-31T06:40:33;12.50;99.90
19538;DHT22;9914;51.008;4.300;2023-03-31T06:42:59;12.50;99.90
19538;DHT22;9914;51.008;4.300;2023-03-31T06:45:24;12.60;99.90
19538;DHT22;9914;51.008;4.300;2023-03-31T06:47:50;12.60;99.90
19538;DHT22;9914;51.008;4.300;2023-03-31T06:50:15;12.60;99.90
19538;DHT22;9914;51.008;4.300;2023-03-31T06:52:41;12.70;99.90
19538;DHT22;9914;51.008;4.300;2023-03-31T06:55:07;12.80;99.90
19538;DHT22;9914;51.008;4.300;2023-03-31T06:57:34;12.80;99.90
19538;DHT22;9914;51.008;4.300;2023-03-31T07:00:01;12.80;99.90
19538;DHT22;9914;51.008;4.300;2023-03-31T07:02:27;12.80;99.90
19538;DHT22;9914;51.008;4.300;2023-03-31T07:04:53;12.90;99.90
19538;DHT22;9914;51.008;4.300;2023-03-31T07:07:18;12.80;99.90
19538;DHT22;9914;51.008;4.300;2023-03-31T07:09:44;12.90;99.90
19538;DHT22;9914;51.008;4.300;2023-03-31T07:12:10;13.00;99.90
19538;DHT22;9914;51.008;4.300;2023-03-31T07:14:35;12.90;99.90
19538;DHT22;9914;51.008;4.300;2023-03-31T07:17:02;12.90;99.90
19538;DHT22;9914;51.008;4.300;2023-03-31T07:19:27;13.00;99.90
19538;DHT22;9914;51.008;4.300;2023-03-31T07:21:53;13.00;99.90
19538;DHT22;9914;51.008;4.300;2023-03-31T07:24:21;13.00;99.90
19538;DHT22;9914;51.008;4.300;2023-03-31T07:26:46;13.10;99.90
19538;DHT22;9914;51.008;4.300;2023-03-31T07:29:12;13.00;99.90
19538;DHT22;9914;51.008;4.300;2023-03-31T07:31:37;13.00;99.90
19538;DHT22;9914;51.008;4.300;2023-03-31T07:34:03;12.90;99.90
19538;DHT22;9914;51.008;4.300;2023-03-31T07:36:30;12.90;99.90
19538;DHT22;9914;51.008;4.300;2023-03-31T07:38:56;12.90;99.90
19538;DHT22;9914;51.008;4.300;2023-03-31T07:41:22;12.90;99.90
19538;DHT22;9914;51.008;4.300;2023-03-31T07:43:49;12.90;99.90
19538;DHT22;9914;51.008;4.300;2023-03-31T07:46:17;13.00;99.90
19538;DHT22;9914;51.008;4.300;2023-03-31T07:48:43;12.90;99.90
19538;DHT22;9914;51.008;4.300;2023-03-31T07:51:11;13.00;99.90
19538;DHT22;9914;51.008;4.300;2023-03-31T07:53:36;13.00;99.90
19538;DHT22;9914;51.008;4.300;2023-03-31T07:56:02;13.10;99.90
19538;DHT22;9914;51.008;4.300;2023-03-31T07:58:28;13.20;99.90
19538;DHT22;9914;51.008;4.300;2023-03-31T08:00:53;13.40;99.90
19538;DHT22;9914;51.008;4.300;2023-03-31T08:03:19;13.40;99.90
19538;DHT22;9914;51.008;4.300;2023-03-31T08:05:45;13.30;99.90
19538;DHT22;9914;51.008;4.300;2023-03-31T08:08:10;13.30;99.90
19538;DHT22;9914;51.008;4.300;2023-03-31T08:10:36;13.10;99.90
19538;DHT22;9914;51.008;4.300;2023-03-31T08:13:02;13.10;99.90
19538;DHT22;9914;51.008;4.300;2023-03-31T08:15:27;13.00;99.90
19538;DHT22;9914;51.008;4.300;2023-03-31T08:17:53;12.90;99.90
19538;DHT22;9914;51.008;4.300;2023-03-31T08:20:19;12.90;99.90
19538;DHT22;9914;51.008;4.300;2023-03-31T08:22:44;12.90;99.90
19538;DHT22;9914;51.008;4.300;2023-03-31T08:25:10;12.90;99.90
19538;DHT22;9914;51.008;4.300;2023-03-31T08:27:38;13.00;99.90
19538;DHT22;9914;51.008;4.300;2023-03-31T08:30:05;13.10;99.90
19538;DHT22;9914;51.008;4.300;2023-03-31T08:32:32;13.10;99.90
19538;DHT22;9914;51.008;4.300;2023-03-31T08:34:58;13.10;99.90
19538;DHT22;9914;51.008;4.300;2023-03-31T08:37:23;13.10;99.90
19538;DHT22;9914;51.008;4.300;2023-03-31T08:39:50;13.00;99.90
19538;DHT22;9914;51.008;4.300;2023-03-31T08:42:38;13.00;99.90
19538;DHT22;9914;51.008;4.300;2023-03-31T08:48:24;13.20;99.90
19538;DHT22;9914;51.008;4.300;2023-03-31T08:51:13;13.20;99.90
19538;DHT22;9914;51.008;4.300;2023-03-31T08:53:44;13.40;99.90
19538;DHT22;9914;51.008;4.300;2023-03-31T08:56:17;13.30;99.90
19538;DHT22;9914;51.008;4.300;2023-03-31T08:58:46;13.20;99.90
19538;DHT22;9914;51.008;4.300;2023-03-31T09:01:24;13.30;99.90
19538;DHT22;9914;51.008;4.300;2023-03-31T09:06:48;13.20;99.90
19538;DHT22;9914;51.008;4.300;2023-03-31T09:09:25;13.40;99.90
19538;DHT22;9914;51.008;4.300;2023-03-31T09:11:54;13.40;99.90
19538;DHT22;9914;51.008;4.300;2023-03-31T09:14:41;13.50;99.90
19538;DHT22;9914;51.008;4.300;2023-03-31T09:17:29;13.50;99.90
19538;DHT22;9914;51.008;4.300;2023-03-31T09:20:11;13.60;99.90
19538;DHT22;9914;51.008;4.300;2023-03-31T09:22:45;13.70;99.90
19538;DHT22;9914;51.008;4.300;2023-03-31T09:25:28;13.60;99.90
19538;DHT22;9914;51.008;4.300;2023-03-31T09:27:57;13.60;99.90
19538;DHT22;9914;51.008;4.300;2023-03-31T09:30:27;13.50;99.90
19538;DHT22;9914;51.008;4.300;2023-03-31T09:35:35;13.40;99.90
19538;DHT22;9914;51.008;4.300;2023-03-31T09:38:01;13.50;99.90
19538;DHT22;9914;51.008;4.300;2023-03-31T09:40:28;13.50;99.90
19538;DHT22;9914;51.008;4.300;2023-03-31T09:42:59;13.80;99.90
19538;DHT22;9914;51.008;4.300;2023-03-31T09:45:26;13.70;99.90
19538;DHT22;9914;51.008;4.300;2023-03-31T09:48:00;13.60;99.90
19538;DHT22;9914;51.008;4.300;2023-03-31T09:50:25;13.40;99.90
19538;DHT22;9914;51.008;4.300;2023-03-31T09:52:55;13.30;99.90
19538;DHT22;9914;51.008;4.300;2023-03-31T09:55:53;13.20;99.90
19538;DHT22;9914;51.008;4.300;2023-03-31T09:58:17;13.30;99.90
19538;DHT22;9914;51.008;4.300;2023-03-31T10:00:58;13.10;99.90
19538;DHT22;9914;51.008;4.300;2023-03-31T10:03:26;13.00;99.90
19538;DHT22;9914;51.008;4.300;2023-03-31T10:05:55;12.90;99.90
19538;DHT22;9914;51.008;4.300;2023-03-31T10:08:39;13.00;99.90
19538;DHT22;9914;51.008;4.300;2023-03-31T10:11:08;13.00;99.90
19538;DHT22;9914;51.008;4.300;2023-03-31T10:13:44;13.00;99.90
19538;DHT22;9914;51.008;4.300;2023-03-31T10:18:52;13.00;99.90
19538;DHT22;9914;51.008;4.300;2023-03-31T10:21:27;13.00;99.90
19538;DHT22;9914;51.008;4.300;2023-03-31T10:23:59;13.10;99.90
19538;DHT22;9914;51.008;4.300;2023-03-31T10:26:26;13.20;99.90
19538;DHT22;9914;51.008;4.300;2023-03-31T10:28:53;13.20;99.90
19538;DHT22;9914;51.008;4.300;2023-03-31T10:31:24;13.30;99.90
19538;DHT22;9914;51.008;4.300;2023-03-31T10:33:50;13.40;99.90
19538;DHT22;9914;51.008;4.300;2023-03-31T10:36:21;13.30;99.90
19538;DHT22;9914;51.008;4.300;2023-03-31T10:38:49;13.40;99.90
19538;DHT22;9914;51.008;4.300;2023-03-31T10:41:24;13.50;99.90
19538;DHT22;9914;51.008;4.300;2023-03-31T10:43:53;13.60;99.90
19538;DHT22;9914;51.008;4.300;2023-03-31T10:46:19;13.50;99.90
19538;DHT22;9914;51.008;4.300;2023-03-31T10:48:45;13.50;99.90
19538;DHT22;9914;51.008;4.300;2023-03-31T10:51:17;13.60;99.90
19538;DHT22;9914;51.008;4.300;2023-03-31T10:53:50;13.60;99.90
19538;DHT22;9914;51.008;4.300;2023-03-31T11:02:33;13.60;99.90
19538;DHT22;9914;51.008;4.300;2023-03-31T11:04:51;13.70;99.90
19538;DHT22;9914;51.008;4.300;2023-03-31T11:12:53;13.70;99.90
19538;DHT22;9914;51.008;4.300;2023-03-31T11:18:16;13.70;99.90
19538;DHT22;9914;51.008;4.300;2023-03-31T11:20:56;13.80;99.90
19538;DHT22;9914;51.008;4.300;2023-03-31T11:26:09;13.80;99.90
19538;DHT22;9914;51.008;4.300;2023-03-31T11:40:31;13.80;99.90
19538;DHT22;9914;51.008;4.300;2023-03-31T11:43:21;13.80;99.90
19538;DHT22;9914;51.008;4.300;2023-03-31T11:48:53;13.80;99.90
19538;DHT22;9914;51.008;4.300;2023-03-31T11:51:30;13.90;99.90
19538;DHT22;9914;51.008;4.300;2023-03-31T11:53:58;13.90;99.90
19538;DHT22;9914;51.008;4.300;2023-03-31T11:56:32;13.80;99.90
19538;DHT22;9914;51.008;4.300;2023-03-31T11:58:59;13.70;99.90
19538;DHT22;9914;51.008;4.300;2023-03-31T12:12:21;13.20;99.90
19538;DHT22;9914;51.008;4.300;2023-03-31T12:17:25;13.30;99.90
19538;DHT22;9914;51.008;4.300;2023-03-31T12:19:55;13.40;99.90
19538;DHT22;9914;51.008;4.300;2023-03-31T12:22:31;13.40;99.90
19538;DHT22;9914;51.008;4.300;2023-03-31T12:25:02;13.40;99.90
19538;DHT22;9914;51.008;4.300;2023-03-31T12:27:41;13.40;99.90
19538;DHT22;9914;51.008;4.300;2023-03-31T12:30:11;13.50;99.90
19538;DHT22;9914;51.008;4.300;2023-03-31T12:32:42;13.40;99.90
19538;DHT22;9914;51.008;4.300;2023-03-31T12:49:47;13.60;99.90
19538;DHT22;9914;51.008;4.300;2023-03-31T12:57:34;13.40;99.90
19538;DHT22;9914;51.008;4.300;2023-03-31T13:02:39;13.50;99.90
19538;DHT22;9914;51.008;4.300;2023-03-31T13:08:06;13.20;99.90
19538;DHT22;9914;51.008;4.300;2023-03-31T13:10:50;13.30;99.90
19538;DHT22;9914;51.008;4.300;2023-03-31T13:13:18;13.40;99.90
19538;DHT22;9914;51.008;4.300;2023-03-31T13:15:53;13.40;99.90
19538;DHT22;9914;51.008;4.300;2023-03-31T13:18:20;13.60;99.90
19538;DHT22;9914;51.008;4.300;2023-03-31T13:20:46;13.50;99.90
19538;DHT22;9914;51.008;4.300;2023-03-31T13:23:23;13.60;99.90
19538;DHT22;9914;51.008;4.300;2023-03-31T13:25:55;13.50;99.90
19538;DHT22;9914;51.008;4.300;2023-03-31T13:30:48;13.70;99.90
19538;DHT22;9914;51.008;4.300;2023-03-31T13:33:18;13.90;99.90
19538;DHT22;9914;51.008;4.300;2023-03-31T13:35:47;13.90;99.90
19538;DHT22;9914;51.008;4.300;2023-03-31T13:38:42;14.00;99.90
19538;DHT22;9914;51.008;4.300;2023-03-31T13:41:27;14.10;99.90
19538;DHT22;9914;51.008;4.300;2023-03-31T13:53:00;13.70;99.90
19538;DHT22;9914;51.008;4.300;2023-03-31T13:55:53;13.60;99.90
19538;DHT22;9914;51.008;4.300;2023-03-31T13:58:37;13.60;99.90
19538;DHT22;9914;51.008;4.300;2023-03-31T14:04:29;13.80;99.90
19538;DHT22;9914;51.008;4.300;2023-03-31T14:07:12;13.60;99.90
19538;DHT22;9914;51.008;4.300;2023-03-31T14:09:42;13.60;99.90
19538;DHT22;9914;51.008;4.300;2023-03-31T14:12:34;13.50;99.90
19538;DHT22;9914;51.008;4.300;2023-03-31T14:15:00;13.60;99.90
19538;DHT22;9914;51.008;4.300;2023-03-31T14:17:32;13.70;99.90
19538;DHT22;9914;51.008;4.300;2023-03-31T14:31:30;13.50;99.90
19538;DHT22;9914;51.008;4.300;2023-03-31T14:37:05;13.50;99.90
19538;DHT22;9914;51.008;4.300;2023-03-31T14:39:45;13.50;99.90
19538;DHT22;9914;51.008;4.300;2023-03-31T14:42:57;13.40;99.90
19538;DHT22;9914;51.008;4.300;2023-03-31T14:45:03;13.40;99.90
19538;DHT22;9914;51.008;4.300;2023-03-31T14:47:30;13.70;99.90
19538;DHT22;9914;51.008;4.300;2023-03-31T14:50:14;13.70;99.90
19538;DHT22;9914;51.008;4.300;2023-03-31T14:52:49;13.60;99.90
19538;DHT22;9914;51.008;4.300;2023-03-31T14:55:16;13.50;99.90
19538;DHT22;9914;51.008;4.300;2023-03-31T14:57:45;13.20;99.90
19538;DHT22;9914;51.008;4.300;2023-03-31T15:00:14;13.00;99.90
19538;DHT22;9914;51.008;4.300;2023-03-31T15:02:43;13.10;99.90
19538;DHT22;9914;51.008;4.300;2023-03-31T15:05:18;12.90;99.90
19538;DHT22;9914;51.008;4.300;2023-03-31T15:07:47;12.80;99.90
19538;DHT22;9914;51.008;4.300;2023-03-31T15:10:18;12.80;99.90
19538;DHT22;9914;51.008;4.300;2023-03-31T15:12:46;12.90;99.90
19538;DHT22;9914;51.008;4.300;2023-03-31T15:15:13;13.00;99.90
19538;DHT22;9914;51.008;4.300;2023-03-31T15:17:41;12.90;99.90
19538;DHT22;9914;51.008;4.300;2023-03-31T15:20:30;12.80;99.90
19538;DHT22;9914;51.008;4.300;2023-03-31T15:22:57;12.70;99.90
19538;DHT22;9914;51.008;4.300;2023-03-31T15:25:36;12.70;99.90
19538;DHT22;9914;51.008;4.300;2023-03-31T15:28:07;12.80;99.90
19538;DHT22;9914;51.008;4.300;2023-03-31T15:30:36;12.80;99.90
19538;DHT22;9914;51.008;4.300;2023-03-31T15:33:06;12.80;99.90
19538;DHT22;9914;51.008;4.300;2023-03-31T15:35:34;12.70;99.90
19538;DHT22;9914;51.008;4.300;2023-03-31T15:38:02;12.70;99.90
19538;DHT22;9914;51.008;4.300;2023-03-31T15:40:39;12.90;99.90
19538;DHT22;9914;51.008;4.300;2023-03-31T15:43:16;12.90;99.90
19538;DHT22;9914;51.008;4.300;2023-03-31T15:48:36;12.80;99.90
19538;DHT22;9914;51.008;4.300;2023-03-31T15:51:18;12.80;99.90
19538;DHT22;9914;51.008;4.300;2023-03-31T15:53:54;12.80;99.90
19538;DHT22;9914;51.008;4.300;2023-03-31T15:56:43;12.80;99.90
19538;DHT22;9914;51.008;4.300;2023-03-31T15:59:29;12.90;99.90
19538;DHT22;9914;51.008;4.300;2023-03-31T16:01:56;12.80;99.90
19538;DHT22;9914;51.008;4.300;2023-03-31T16:04:29;12.70;99.90
19538;DHT22;9914;51.008;4.300;2023-03-31T16:09:40;12.60;99.90
19538;DHT22;9914;51.008;4.300;2023-03-31T16:12:14;12.60;99.90
19538;DHT22;9914;51.008;4.300;2023-03-31T16:14:52;12.50;99.90
19538;DHT22;9914;51.008;4.300;2023-03-31T16:20:19;12.40;99.90
19538;DHT22;9914;51.008;4.300;2023-03-31T16:22:49;12.40;99.90
19538;DHT22;9914;51.008;4.300;2023-03-31T16:25:18;12.40;99.90
19538;DHT22;9914;51.008;4.300;2023-03-31T16:27:48;12.40;99.90
19538;DHT22;9914;51.008;4.300;2023-03-31T16:30:19;12.40;99.90
19538;DHT22;9914;51.008;4.300;2023-03-31T16:35:32;12.50;99.90
19538;DHT22;9914;51.008;4.300;2023-03-31T16:37:58;12.20;99.90
19538;DHT22;9914;51.008;4.300;2023-03-31T16:40:27;12.20;99.90
19538;DHT22;9914;51.008;4.300;2023-03-31T16:43:16;12.30;99.90
19538;DHT22;9914;51.008;4.300;2023-03-31T16:45:55;12.30;99.90
19538;DHT22;9914;51.008;4.300;2023-03-31T16:48:24;12.40;99.90
19538;DHT22;9914;51.008;4.300;2023-03-31T16:50:51;12.30;99.90
19538;DHT22;9914;51.008;4.300;2023-03-31T16:53:22;12.30;99.90
19538;DHT22;9914;51.008;4.300;2023-03-31T16:55:48;12.10;99.90
19538;DHT22;9914;51.008;4.300;2023-03-31T16:58:14;12.00;99.90
19538;DHT22;9914;51.008;4.300;2023-03-31T17:00:40;12.10;99.90
19538;DHT22;9914;51.008;4.300;2023-03-31T17:03:08;11.90;99.90
19538;DHT22;9914;51.008;4.300;2023-03-31T17:05:42;11.90;99.90
19538;DHT22;9914;51.008;4.300;2023-03-31T17:08:09;11.90;99.90
19538;DHT22;9914;51.008;4.300;2023-03-31T17:10:36;11.80;99.90
19538;DHT22;9914;51.008;4.300;2023-03-31T17:13:02;11.70;99.90
19538;DHT22;9914;51.008;4.300;2023-03-31T17:15:28;11.70;99.90
19538;DHT22;9914;51.008;4.300;2023-03-31T17:17:54;11.60;99.90
19538;DHT22;9914;51.008;4.300;2023-03-31T17:20:21;11.70;99.90
19538;DHT22;9914;51.008;4.300;2023-03-31T17:22:47;11.60;99.90
19538;DHT22;9914;51.008;4.300;2023-03-31T17:25:12;11.60;99.90
19538;DHT22;9914;51.008;4.300;2023-03-31T17:27:38;11.60;99.90
19538;DHT22;9914;51.008;4.300;2023-03-31T17:30:05;11.60;99.90
19538;DHT22;9914;51.008;4.300;2023-03-31T17:32:31;11.60;99.90
19538;DHT22;9914;51.008;4.300;2023-03-31T17:34:57;11.60;99.90
19538;DHT22;9914;51.008;4.300;2023-03-31T17:37:23;11.60;99.90
19538;DHT22;9914;51.008;4.300;2023-03-31T17:39:48;11.60;99.90
19538;DHT22;9914;51.008;4.300;2023-03-31T17:42:15;11.60;99.90
19538;DHT22;9914;51.008;4.300;2023-03-31T17:44:41;11.50;99.90
19538;DHT22;9914;51.008;4.300;2023-03-31T17:47:07;11.50;99.90
19538;DHT22;9914;51.008;4.300;2023-03-31T17:49:33;11.60;99.90
19538;DHT22;9914;51.008;4.300;2023-03-31T17:51:59;11.60;99.90
19538;DHT22;9914;51.008;4.300;2023-03-31T17:54:25;11.60;99.90
19538;DHT22;9914;51.008;4.300;2023-03-31T17:56:51;11.60;99.90
19538;DHT22;9914;51.008;4.300;2023-03-31T17:59:17;11.60;99.90
19538;DHT22;9914;51.008;4.300;2023-03-31T18:01:43;11.50;99.90
19538;DHT22;9914;51.008;4.300;2023-03-31T18:04:09;11.60;99.90
19538;DHT22;9914;51.008;4.300;2023-03-31T18:06:35;11.60;99.90
19538;DHT22;9914;51.008;4.300;2023-03-31T18:09:01;11.50;99.90
19538;DHT22;9914;51.008;4.300;2023-03-31T18:11:27;11.40;99.90
19538;DHT22;9914;51.008;4.300;2023-03-31T18:13:54;11.40;99.90
19538;DHT22;9914;51.008;4.300;2023-03-31T18:16:20;11.30;99.90
19538;DHT22;9914;51.008;4.300;2023-03-31T18:18:45;11.30;99.90
19538;DHT22;9914;51.008;4.300;2023-03-31T18:21:12;11.30;99.90
19538;DHT22;9914;51.008;4.300;2023-03-31T18:23:39;11.40;99.90
19538;DHT22;9914;51.008;4.300;2023-03-31T18:26:06;11.40;99.90
19538;DHT22;9914;51.008;4.300;2023-03-31T18:28:32;11.40;99.90
19538;DHT22;9914;51.008;4.300;2023-03-31T18:31:01;11.40;99.90
19538;DHT22;9914;51.008;4.300;2023-03-31T18:33:27;11.50;99.90
19538;DHT22;9914;51.008;4.300;2023-03-31T18:35:53;11.50;99.90
19538;DHT22;9914;51.008;4.300;2023-03-31T18:38:18;11.50;99.90
19538;DHT22;9914;51.008;4.300;2023-03-31T18:40:50;11.40;99.90
19538;DHT22;9914;51.008;4.300;2023-03-31T18:43:18;11.40;99.90